createdAt,value
2023-04-25T00:03:52.330Z,6.88
2023-04-25T00:08:49.640Z,6.78
2023-04-25T00:13:47.499Z,6.95
2023-04-25T00:18:52.275Z,6.65
2023-04-25T00:23:48.944Z,7.78
2023-04-25T00:28:45.955Z,7.18
2023-04-25T00:33:42.533Z,8.77
2023-04-25T00:38:39.233Z,7.60
2023-04-25T00:43:37.340Z,8.23
2023-04-25T00:48:34.816Z,6.90
2023-04-25T00:53:32.976Z,6.65
2023-04-25T00:58:29.420Z,7.03
2023-04-25T01:03:26.101Z,6.75
2023-04-25T01:08:26.357Z,7.28
2023-04-25T01:13:22.795Z,7.63
2023-04-25T01:18:21.385Z,6.85
2023-04-25T01:23:18.262Z,6.25
2023-04-25T01:28:14.893Z,6.65
2023-04-25T01:33:14.771Z,6.68
2023-04-25T01:38:11.275Z,7.75
2023-04-25T01:43:12.824Z,6.93
2023-04-25T01:48:10.847Z,8.20
2023-04-25T01:53:07.596Z,7.32
2023-04-25T01:58:12.643Z,6.50
2023-04-25T02:03:09.605Z,7.15
2023-04-25T02:08:07.933Z,6.43
2023-04-25T02:13:06.110Z,8.75
2023-04-25T02:18:02.873Z,7.63
2023-04-25T02:22:59.606Z,6.43
2023-04-25T02:27:55.992Z,7.88
2023-04-25T02:32:52.528Z,6.38
2023-04-25T02:37:49.006Z,6.85
2023-04-25T02:42:46.744Z,9.27
2023-04-25T02:47:43.158Z,6.65
2023-04-25T02:52:39.567Z,7.10
2023-04-25T02:57:38.958Z,7.20
2023-04-25T03:02:35.475Z,6.50
2023-04-25T03:07:32.037Z,6.80
2023-04-25T03:12:28.442Z,7.13
2023-04-25T03:17:24.926Z,6.55
2023-04-25T03:22:21.442Z,6.70
2023-04-25T03:27:18.512Z,5.97
2023-04-25T03:32:15.117Z,7.30
2023-04-25T03:37:11.662Z,6.30
2023-04-25T03:42:08.106Z,7.47
2023-04-25T03:47:04.812Z,6.93
2023-04-25T03:52:01.461Z,6.03
2023-04-25T03:56:57.970Z,7.97
2023-04-25T04:01:55.334Z,6.07
2023-04-25T04:06:53.443Z,7.15
2023-04-25T04:11:49.900Z,8.55
2023-04-25T04:16:46.373Z,7.35
2023-04-25T04:21:42.805Z,7.18
2023-04-25T04:26:39.703Z,8.15
2023-04-25T04:31:36.770Z,6.88
2023-04-25T04:36:33.298Z,6.15
2023-04-25T04:41:29.733Z,6.80
2023-04-25T04:46:26.206Z,7.40
2023-04-25T04:51:22.772Z,6.93
2023-04-25T04:56:21.761Z,7.15
2023-04-25T05:01:18.471Z,7.03
2023-04-25T05:06:15.029Z,7.53
2023-04-25T05:11:12.087Z,6.38
2023-04-25T05:16:08.587Z,7.90
2023-04-25T05:21:05.306Z,7.18
2023-04-25T05:26:01.795Z,6.30
2023-04-25T05:30:59.716Z,6.47
2023-04-25T05:35:56.130Z,6.93
2023-04-25T05:40:52.553Z,7.07
2023-04-25T05:45:49.003Z,7.00
2023-04-25T05:50:46.939Z,8.07
2023-04-25T05:55:44.236Z,7.43
2023-04-25T06:00:42.504Z,6.50
2023-04-25T06:05:38.991Z,7.80
2023-04-25T06:10:35.488Z,7.18
2023-04-25T06:15:34.972Z,6.97
2023-04-25T06:20:31.478Z,8.70
2023-04-25T06:25:27.912Z,7.72
2023-04-25T06:30:26.548Z,7.70
2023-04-25T06:35:23.024Z,6.88
2023-04-25T06:40:19.532Z,7.05
2023-04-25T06:45:16.077Z,6.88
2023-04-25T06:50:12.834Z,7.05
2023-04-25T06:55:09.772Z,7.82
2023-04-25T07:00:09.392Z,6.10
2023-04-25T07:05:06.029Z,6.75
2023-04-25T07:10:02.485Z,6.43
2023-04-25T07:14:58.917Z,6.88
2023-04-25T07:19:55.325Z,5.85
2023-04-25T07:24:51.786Z,6.75
2023-04-25T07:29:48.372Z,6.10
2023-04-25T07:34:44.809Z,7.03
2023-04-25T07:39:41.316Z,6.53
2023-04-25T07:44:39.690Z,5.50
2023-04-25T07:49:37.211Z,6.53
2023-04-25T07:54:33.670Z,6.55
2023-04-25T07:59:30.605Z,6.40
2023-04-25T08:04:27.415Z,6.50
2023-04-25T08:09:24.042Z,7.30
2023-04-25T08:14:20.724Z,7.05
2023-04-25T08:19:17.155Z,5.75
2023-04-25T08:24:13.604Z,6.32
2023-04-25T08:29:10.039Z,6.88
2023-04-25T08:34:06.860Z,5.78
2023-04-25T08:39:03.355Z,6.10
2023-04-25T08:44:01.927Z,6.05
2023-04-25T08:49:02.811Z,6.15
2023-04-25T08:54:27.249Z,6.57
2023-04-25T08:59:28.386Z,6.38
2023-04-25T09:04:25.433Z,5.25
2023-04-25T09:09:22.368Z,6.20
2023-04-25T09:14:24.033Z,6.57
2023-04-25T09:19:41.497Z,5.80
2023-04-25T09:24:39.495Z,5.60
2023-04-25T09:29:38.432Z,4.85
2023-04-25T09:34:41.821Z,5.43
2023-04-25T09:39:39.464Z,5.50
2023-04-25T09:44:36.939Z,5.80
2023-04-25T09:49:33.404Z,5.22
2023-04-25T09:54:29.843Z,5.30
2023-04-25T09:59:26.631Z,5.32
2023-04-25T10:04:27.993Z,5.25
2023-04-25T10:09:27.578Z,5.38
2023-04-25T10:14:25.087Z,5.63
2023-04-25T10:19:22.411Z,5.80
2023-04-25T10:24:20.272Z,5.85
2023-04-25T10:29:27.013Z,5.40
2023-04-25T10:34:43.190Z,5.20
2023-04-25T10:39:42.238Z,5.32
2023-04-25T10:44:40.798Z,5.65
2023-04-25T10:49:43.546Z,5.15
2023-04-25T10:54:49.194Z,6.15
2023-04-25T10:59:45.873Z,5.88
2023-04-25T11:04:42.645Z,5.13
2023-04-25T11:09:41.598Z,6.15
2023-04-25T11:14:38.230Z,5.00
2023-04-25T11:19:34.683Z,4.88
2023-04-25T11:24:33.673Z,5.05
2023-04-25T11:29:31.468Z,5.57
2023-04-25T11:34:31.526Z,5.32
2023-04-25T11:39:28.951Z,6.10
2023-04-25T11:44:25.492Z,4.95
2023-04-25T11:49:23.073Z,5.38
2023-04-25T11:54:19.575Z,5.50
2023-04-25T11:59:17.568Z,5.97
2023-04-25T12:04:25.060Z,4.90
2023-04-25T12:09:29.466Z,4.82
2023-04-25T12:14:31.269Z,4.82
2023-04-25T12:19:34.443Z,4.95
2023-04-25T12:24:38.324Z,5.13
2023-04-25T12:29:48.525Z,5.25
2023-04-25T12:34:46.235Z,5.30
2023-04-25T12:39:42.904Z,4.78
2023-04-25T12:44:39.543Z,4.80
2023-04-25T12:49:36.170Z,5.13
2023-04-25T12:54:32.670Z,4.30
2023-04-25T12:59:29.284Z,4.85
2023-04-25T13:04:26.116Z,5.07
2023-04-25T13:09:22.644Z,4.95
2023-04-25T13:14:19.121Z,5.38
2023-04-25T13:19:15.512Z,6.40
2023-04-25T13:24:11.899Z,4.57
2023-04-25T13:29:08.395Z,4.80
2023-04-25T13:34:04.903Z,5.20
2023-04-25T13:39:05.650Z,6.95
2023-04-25T13:44:02.161Z,5.78
2023-04-25T13:49:06.201Z,5.40
2023-04-25T13:54:08.533Z,5.32
2023-04-25T13:59:05.033Z,4.75
2023-04-25T14:04:01.585Z,4.93
2023-04-25T14:08:58.010Z,4.70
2023-04-25T14:13:54.538Z,4.50
2023-04-25T14:18:51.772Z,4.82
2023-04-25T14:23:48.780Z,4.97
2023-04-25T14:28:45.666Z,5.15
2023-04-25T14:33:44.187Z,4.63
2023-04-25T14:38:40.798Z,5.38
2023-04-25T14:43:37.729Z,5.80
2023-04-25T14:48:35.378Z,5.57
2023-04-25T14:53:32.716Z,4.53
2023-04-25T14:58:29.114Z,5.03
2023-04-25T15:03:25.938Z,5.30
2023-04-25T15:08:22.586Z,4.57
2023-04-25T15:13:20.163Z,5.75
2023-04-25T15:18:16.760Z,4.65
2023-04-25T15:23:13.267Z,4.80
2023-04-25T15:28:09.790Z,4.82
2023-04-25T15:33:06.310Z,5.13
2023-04-25T15:38:02.760Z,6.75
2023-04-25T15:42:59.602Z,4.75
2023-04-25T15:47:57.288Z,5.10
2023-04-25T15:52:54.268Z,4.55
2023-04-25T15:57:51.266Z,5.20
2023-04-25T16:02:50.717Z,5.75
2023-04-25T16:07:47.692Z,4.93
2023-04-25T16:12:44.220Z,4.90
2023-04-25T16:17:41.383Z,4.97
2023-04-25T16:22:42.727Z,5.20
2023-04-25T16:27:39.349Z,5.53
2023-04-25T16:32:36.717Z,5.00
2023-04-25T16:37:33.258Z,4.82
2023-04-25T16:42:29.693Z,4.75
2023-04-25T16:47:26.197Z,5.03
2023-04-25T16:52:23.694Z,5.00
2023-04-25T16:57:21.096Z,5.38
2023-04-25T17:02:17.724Z,5.35
2023-04-25T17:07:14.246Z,5.20
2023-04-25T17:12:10.871Z,4.60
2023-04-25T17:17:07.413Z,5.00
2023-04-25T17:22:03.890Z,4.85
2023-04-25T17:27:01.487Z,4.57
2023-04-25T17:31:57.916Z,5.30
2023-04-25T17:36:54.627Z,5.03
2023-04-25T17:41:51.459Z,4.85
2023-04-25T17:46:48.103Z,5.50
2023-04-25T17:51:44.697Z,5.45
2023-04-25T17:56:41.788Z,5.93
2023-04-25T18:01:38.293Z,5.00
2023-04-25T18:06:35.180Z,6.65
2023-04-25T18:11:32.626Z,4.88
2023-04-25T18:16:29.375Z,5.47
2023-04-25T18:21:26.074Z,5.13
2023-04-25T18:26:23.125Z,4.30
2023-04-25T18:31:23.954Z,6.20
2023-04-25T18:36:20.442Z,4.53
2023-04-25T18:46:21.971Z,5.28
2023-04-25T18:51:27.585Z,5.97
2023-04-25T18:56:25.653Z,5.15
2023-04-25T19:01:24.127Z,5.28
2023-04-25T19:06:22.992Z,5.80
2023-04-25T19:11:21.434Z,4.97
2023-04-25T19:16:18.470Z,4.65
2023-04-25T19:21:15.276Z,5.30
2023-04-25T19:26:14.505Z,5.40
2023-04-25T19:31:11.846Z,5.00
2023-04-25T19:36:08.553Z,5.78
2023-04-25T19:41:05.020Z,5.00
2023-04-25T19:46:01.438Z,5.80
2023-04-25T19:50:58.210Z,5.70
2023-04-25T19:55:54.654Z,6.70
2023-04-25T20:00:51.369Z,5.18
2023-04-25T20:05:47.774Z,5.55
2023-04-25T20:10:44.355Z,5.40
2023-04-25T20:15:41.157Z,4.47
2023-04-25T20:20:37.569Z,4.97
2023-04-25T20:25:33.939Z,5.00
2023-04-25T20:30:34.120Z,5.45
2023-04-25T20:35:30.567Z,5.20
2023-04-25T20:40:27.578Z,4.75
2023-04-25T20:45:26.049Z,4.60
2023-04-25T20:50:22.590Z,5.18
2023-04-25T20:55:19.440Z,5.13
2023-04-25T21:00:18.047Z,5.22
2023-04-25T21:05:14.568Z,5.30
2023-04-25T21:10:11.278Z,5.55
2023-04-25T21:15:08.377Z,5.50
2023-04-25T21:20:10.213Z,5.65
2023-04-25T21:25:07.140Z,5.23
2023-04-25T21:30:04.073Z,4.35
2023-04-25T21:35:00.626Z,5.30
2023-04-25T21:39:57.394Z,4.60
2023-04-25T21:44:53.910Z,7.47
2023-04-25T21:49:50.722Z,3.70
2023-04-25T21:54:47.102Z,4.30
2023-04-25T21:59:43.493Z,4.10
2023-04-25T22:04:42.938Z,4.07
2023-04-25T22:09:51.180Z,4.50
2023-04-25T22:14:50.869Z,3.40
2023-04-25T22:19:47.523Z,4.10
2023-04-25T22:24:44.036Z,3.47
2023-04-25T22:29:41.695Z,3.75
2023-04-25T22:34:38.075Z,3.83
2023-04-25T22:39:34.477Z,4.30
2023-04-25T22:44:30.927Z,4.20
2023-04-25T22:49:27.407Z,4.30
2023-04-25T22:54:23.995Z,4.18
2023-04-25T22:59:20.730Z,4.43
2023-04-25T23:04:18.909Z,4.30
2023-04-25T23:09:15.853Z,5.20
2023-04-25T23:14:12.297Z,4.47
2023-04-25T23:19:08.721Z,5.38
2023-04-25T23:24:05.894Z,4.10
2023-04-25T23:29:02.376Z,4.70
2023-04-25T23:33:58.796Z,4.40
2023-04-25T23:38:55.920Z,4.40
2023-04-25T23:43:52.375Z,5.28
2023-04-25T23:48:48.891Z,4.90
2023-04-25T23:53:45.313Z,3.78
2023-04-25T23:58:44.811Z,4.85
